createdAt,value
2019-05-21T00:03:22.359Z,52.05
2019-05-21T00:08:25.076Z,53.78
2019-05-21T00:13:28.122Z,54.75
2019-05-21T00:18:30.838Z,49.23
2019-05-21T00:23:33.806Z,52.05
2019-05-21T00:28:37.750Z,52.58
2019-05-21T00:34:16.648Z,56.08
2019-05-21T00:39:55.915Z,55.95
2019-05-21T00:44:58.675Z,49.10
2019-05-21T00:50:01.503Z,58.13
2019-05-21T00:55:25.139Z,41.68
2019-05-21T01:00:27.813Z,47.45
2019-05-21T01:05:30.465Z,47.85
2019-05-21T01:10:33.120Z,45.60
2019-05-21T01:15:35.779Z,49.45
2019-05-21T01:20:38.545Z,47.05
2019-05-21T01:25:41.260Z,53.40
2019-05-21T01:30:43.977Z,53.25
2019-05-21T01:35:46.632Z,60.75
2019-05-21T01:40:49.286Z,55.78
2019-05-21T01:45:52.306Z,71.53
2019-05-21T01:50:54.975Z,66.22
2019-05-21T01:56:01.993Z,52.35
2019-05-21T02:01:04.810Z,70.85
2019-05-21T02:06:07.641Z,62.45
2019-05-21T02:11:10.390Z,72.05
2019-05-21T02:16:13.136Z,56.73
2019-05-21T02:21:15.797Z,65.20
2019-05-21T02:26:18.477Z,65.50
2019-05-21T02:31:21.151Z,64.65
2019-05-21T02:36:23.888Z,62.15
2019-05-21T02:41:26.701Z,65.52
2019-05-21T02:46:29.368Z,66.33
2019-05-21T02:51:32.127Z,56.45
2019-05-21T02:56:34.900Z,59.80
2019-05-21T03:01:37.671Z,60.58
2019-05-21T03:06:40.405Z,58.48
2019-05-21T03:11:43.092Z,62.75
2019-05-21T03:16:45.822Z,67.58
2019-05-21T03:21:48.471Z,74.97
2019-05-21T03:26:51.520Z,73.72
2019-05-21T03:31:54.276Z,76.95
2019-05-21T03:36:57.034Z,77.50
2019-05-21T03:41:59.763Z,71.00
2019-05-21T03:47:02.578Z,70.70
2019-05-21T03:52:05.308Z,61.23
2019-05-21T03:57:07.969Z,73.95
2019-05-21T04:02:10.762Z,70.08
2019-05-21T04:07:13.441Z,68.35
2019-05-21T04:12:16.190Z,68.10
2019-05-21T04:17:18.919Z,58.70
2019-05-21T04:22:21.661Z,58.83
2019-05-21T04:27:24.343Z,53.02
2019-05-21T04:32:27.075Z,53.35
2019-05-21T04:37:29.749Z,48.80
2019-05-21T04:42:32.853Z,53.60
2019-05-21T04:47:35.608Z,42.05
2019-05-21T04:52:38.349Z,50.78
2019-05-21T04:57:41.359Z,52.20
2019-05-21T05:02:44.089Z,44.77
2019-05-21T05:07:47.051Z,39.48
2019-05-21T05:12:49.707Z,39.58
2019-05-21T05:17:52.380Z,42.85
2019-05-21T05:22:55.047Z,44.80
2019-05-21T05:27:57.720Z,39.25
2019-05-21T05:33:00.456Z,50.83
2019-05-21T05:38:03.229Z,43.73
2019-05-21T05:43:05.972Z,44.23
2019-05-21T05:48:09.139Z,38.38
2019-05-21T05:53:11.800Z,37.28
2019-05-21T05:58:14.484Z,35.73
2019-05-21T06:03:17.137Z,39.92
2019-05-21T06:08:19.865Z,35.70
2019-05-21T06:13:22.532Z,38.53
2019-05-21T06:18:25.267Z,33.15
2019-05-21T06:23:27.994Z,39.55
2019-05-21T06:28:30.661Z,31.90
2019-05-21T06:33:33.390Z,31.17
2019-05-21T06:38:36.059Z,32.75
2019-05-21T06:43:38.821Z,32.10
2019-05-21T06:48:41.596Z,32.30
2019-05-21T06:53:44.282Z,29.80
2019-05-21T06:58:47.027Z,28.85
2019-05-21T07:03:50.127Z,36.50
2019-05-21T07:08:52.875Z,32.30
2019-05-21T07:13:55.615Z,24.15
2019-05-21T07:18:58.287Z,36.13
2019-05-21T07:24:01.443Z,27.32
2019-05-21T07:29:04.173Z,28.20
2019-05-21T07:34:06.906Z,31.70
2019-05-21T07:39:09.660Z,35.20
2019-05-21T07:44:12.437Z,33.98
2019-05-21T07:49:15.191Z,30.80
2019-05-21T07:54:17.973Z,37.83
2019-05-21T07:59:22.437Z,39.60
2019-05-21T08:04:25.181Z,37.53
2019-05-21T08:09:28.022Z,34.75
2019-05-21T08:14:30.763Z,33.38
2019-05-21T08:19:33.417Z,33.38
2019-05-21T08:24:36.094Z,34.80
2019-05-21T08:29:38.835Z,34.05
2019-05-21T08:34:41.503Z,30.12
2019-05-21T08:39:44.256Z,29.95
2019-05-21T08:44:47.049Z,28.42
2019-05-21T08:49:50.134Z,32.25
2019-05-21T08:54:56.255Z,24.60
2019-05-21T08:59:57.779Z,23.40
2019-05-21T09:05:00.519Z,26.40
2019-05-21T09:10:05.048Z,24.23
2019-05-21T09:15:09.062Z,24.20
2019-05-21T09:20:12.941Z,24.23
2019-05-21T09:25:15.948Z,18.10
2019-05-21T09:30:20.634Z,16.65
2019-05-21T09:35:23.379Z,18.07
2019-05-21T09:40:26.263Z,17.10
2019-05-21T09:45:28.994Z,17.42
2019-05-21T09:50:31.722Z,18.02
2019-05-21T09:55:34.382Z,15.50
2019-05-21T10:00:37.055Z,18.30
2019-05-21T10:05:39.788Z,18.37
2019-05-21T10:10:42.860Z,17.70
2019-05-21T10:15:45.839Z,18.12
2019-05-21T10:20:49.859Z,19.40
2019-05-21T10:25:52.619Z,21.77
2019-05-21T10:30:55.374Z,18.98
2019-05-21T10:35:58.541Z,13.38
2019-05-21T10:41:01.828Z,19.35
2019-05-21T10:46:04.878Z,19.90
2019-05-21T10:51:07.627Z,17.35
2019-05-21T10:56:10.438Z,17.45
2019-05-21T11:01:13.193Z,19.27
2019-05-21T11:06:15.872Z,15.58
2019-05-21T11:11:21.204Z,14.20
2019-05-21T11:16:23.084Z,13.78
2019-05-21T11:21:25.810Z,13.90
2019-05-21T11:26:28.634Z,17.57
2019-05-21T11:31:31.459Z,17.67
2019-05-21T11:36:34.289Z,13.85
2019-05-21T11:41:37.096Z,16.32
2019-05-21T11:46:39.766Z,12.98
2019-05-21T11:51:42.475Z,16.97
2019-05-21T11:56:45.170Z,17.20
2019-05-21T12:01:47.910Z,14.87
2019-05-21T12:06:54.132Z,15.50
2019-05-21T12:11:56.864Z,12.58
2019-05-21T12:16:59.515Z,13.18
2019-05-21T12:22:02.189Z,10.88
2019-05-21T12:27:04.979Z,12.93
2019-05-21T12:32:07.639Z,8.88
2019-05-21T12:37:10.307Z,15.95
2019-05-21T12:42:13.077Z,6.97
2019-05-21T12:47:16.137Z,10.48
2019-05-21T12:52:18.863Z,10.05
2019-05-21T12:57:21.931Z,11.55
2019-05-21T13:02:24.659Z,12.10
2019-05-21T13:07:27.332Z,13.15
2019-05-21T13:12:30.063Z,8.18
2019-05-21T13:17:32.818Z,11.15
2019-05-21T13:22:35.618Z,11.97
2019-05-21T13:27:38.304Z,11.95
2019-05-21T13:32:43.750Z,7.55
2019-05-21T13:37:45.426Z,11.38
2019-05-21T13:42:48.164Z,10.93
2019-05-21T13:47:50.940Z,10.30
2019-05-21T13:52:53.653Z,9.65
2019-05-21T13:57:56.532Z,8.30
2019-05-21T14:02:59.289Z,5.42
2019-05-21T14:08:02.024Z,10.80
2019-05-21T14:13:04.866Z,8.70
2019-05-21T14:18:07.862Z,7.35
2019-05-21T14:23:10.706Z,10.70
2019-05-21T14:28:13.349Z,9.28
2019-05-21T14:33:16.585Z,6.72
2019-05-21T14:38:19.342Z,8.83
2019-05-21T14:43:22.071Z,7.50
2019-05-21T14:48:24.805Z,10.80
2019-05-21T14:53:27.537Z,5.37
2019-05-21T14:58:30.219Z,17.82
2019-05-21T15:03:32.967Z,11.93
2019-05-21T15:08:35.699Z,7.42
2019-05-21T15:13:38.435Z,6.33
2019-05-21T15:18:42.070Z,10.30
2019-05-21T15:23:46.045Z,6.85
2019-05-21T15:28:49.399Z,18.85
2019-05-21T15:33:52.157Z,9.05
2019-05-21T15:38:56.431Z,12.60
2019-05-21T15:43:59.428Z,6.92
2019-05-21T15:49:02.239Z,6.58
2019-05-21T15:54:04.971Z,5.83
2019-05-21T15:59:07.715Z,15.00
2019-05-21T16:04:10.445Z,6.95
2019-05-21T16:09:13.310Z,5.12
2019-05-21T16:14:16.157Z,6.12
2019-05-21T16:19:18.907Z,7.00
2019-05-21T16:24:21.653Z,5.90
2019-05-21T16:29:24.379Z,4.90
2019-05-21T16:34:27.117Z,4.28
2019-05-21T16:39:29.926Z,4.92
2019-05-21T16:44:33.226Z,6.10
2019-05-21T16:49:35.900Z,10.58
2019-05-21T16:54:38.565Z,6.62
2019-05-21T16:59:41.648Z,11.78
2019-05-21T17:04:44.355Z,5.42
2019-05-21T17:09:47.107Z,4.95
2019-05-21T17:14:50.120Z,6.05
2019-05-21T17:19:52.946Z,6.12
2019-05-21T17:24:55.754Z,5.35
2019-05-21T17:29:58.601Z,5.40
2019-05-21T17:35:01.406Z,8.60
2019-05-21T17:40:05.210Z,6.97
2019-05-21T17:45:09.432Z,6.95
2019-05-21T17:50:12.478Z,13.75
2019-05-21T17:55:15.351Z,8.00
2019-05-21T18:00:18.369Z,12.15
2019-05-21T18:05:21.233Z,12.55
2019-05-21T18:10:23.974Z,7.55
2019-05-21T18:15:26.645Z,10.90
2019-05-21T18:20:29.842Z,10.10
2019-05-21T18:25:33.824Z,10.10
2019-05-21T18:30:36.526Z,9.75
2019-05-21T18:35:39.279Z,13.88
2019-05-21T18:40:42.064Z,10.88
2019-05-21T18:45:44.823Z,12.75
2019-05-21T18:50:47.931Z,9.68
2019-05-21T18:55:50.627Z,16.00
2019-05-21T19:00:53.431Z,14.70
2019-05-21T19:05:57.075Z,16.48
2019-05-21T19:10:59.814Z,17.98
2019-05-21T19:16:02.489Z,19.15
2019-05-21T19:21:05.231Z,18.75
2019-05-21T19:26:07.986Z,14.68
2019-05-21T19:31:10.877Z,15.68
2019-05-21T19:36:13.555Z,17.40
2019-05-21T19:41:16.371Z,16.32
2019-05-21T19:46:19.108Z,20.17
2019-05-21T19:51:21.908Z,16.87
2019-05-21T19:56:24.659Z,18.65
2019-05-21T20:01:27.398Z,18.05
2019-05-21T20:06:30.698Z,15.38
2019-05-21T20:11:33.515Z,18.32
2019-05-21T20:16:37.146Z,21.05
2019-05-21T20:21:40.265Z,21.55
2019-05-21T20:26:43.002Z,21.52
2019-05-21T20:31:45.681Z,22.05
2019-05-21T20:36:48.489Z,21.60
2019-05-21T20:41:51.188Z,21.05
2019-05-21T20:46:54.416Z,21.75
2019-05-21T20:51:57.146Z,23.98
2019-05-21T20:56:59.892Z,22.67
2019-05-21T21:02:05.657Z,20.52
2019-05-21T21:07:07.099Z,20.85
2019-05-21T21:12:10.031Z,22.45
2019-05-21T21:17:12.723Z,24.98
2019-05-21T21:22:15.405Z,25.32
2019-05-21T21:27:18.142Z,23.38
2019-05-21T21:32:20.947Z,22.30
2019-05-21T21:37:23.702Z,21.48
2019-05-21T21:42:26.441Z,26.00
2019-05-21T21:47:29.106Z,23.92
2019-05-21T21:52:31.916Z,19.60
2019-05-21T21:57:34.595Z,26.40
2019-05-21T22:02:37.681Z,21.55
2019-05-21T22:07:40.508Z,24.02
2019-05-21T22:12:43.516Z,26.02
2019-05-21T22:17:46.604Z,20.95
2019-05-21T22:22:49.335Z,22.20
2019-05-21T22:27:52.003Z,26.00
2019-05-21T22:32:54.728Z,23.77
2019-05-21T22:37:57.392Z,26.65
2019-05-21T22:43:00.074Z,26.23
2019-05-21T22:48:02.819Z,23.98
2019-05-21T22:53:05.555Z,25.10
2019-05-21T22:58:08.354Z,25.55
2019-05-21T23:03:11.083Z,26.48
2019-05-21T23:08:13.740Z,28.80
2019-05-21T23:13:16.402Z,29.95
2019-05-21T23:18:19.074Z,29.18
2019-05-21T23:23:23.443Z,27.58
2019-05-21T23:28:26.114Z,30.62
2019-05-21T23:33:29.490Z,30.12
2019-05-21T23:38:32.182Z,26.75
2019-05-21T23:43:34.972Z,29.92
2019-05-21T23:48:37.900Z,30.62
2019-05-21T23:53:40.668Z,29.35
2019-05-21T23:58:43.399Z,33.10
